sensor_id;sensor_type;location;lat;lon;timestamp;temperature;humidity
59505;DHT22;45321;53.200;5.814;2023-10-19T00:01:14;10.00;86.10
59505;DHT22;45321;53.200;5.814;2023-10-19T00:03:41;9.90;86.30
59505;DHT22;45321;53.200;5.814;2023-10-19T00:06:08;9.90;86.20
59505;DHT22;45321;53.200;5.814;2023-10-19T00:08:34;9.90;86.50
59505;DHT22;45321;53.200;5.814;2023-10-19T00:11:07;9.90;86.60
59505;DHT22;45321;53.200;5.814;2023-10-19T00:13:35;9.90;86.60
59505;DHT22;45321;53.200;5.814;2023-10-19T00:16:04;9.90;86.70
59505;DHT22;45321;53.200;5.814;2023-10-19T00:18:46;9.90;86.80
59505;DHT22;45321;53.200;5.814;2023-10-19T00:21:14;9.90;87.30
59505;DHT22;45321;53.200;5.814;2023-10-19T00:23:53;9.90;87.40
59505;DHT22;45321;53.200;5.814;2023-10-19T00:26:22;9.80;87.60
59505;DHT22;45321;53.200;5.814;2023-10-19T00:28:51;9.80;87.70
59505;DHT22;45321;53.200;5.814;2023-10-19T00:31:26;9.80;88.20
59505;DHT22;45321;53.200;5.814;2023-10-19T00:33:59;9.80;88.30
59505;DHT22;45321;53.200;5.814;2023-10-19T00:36:26;9.80;88.60
59505;DHT22;45321;53.200;5.814;2023-10-19T00:38:52;9.80;88.80
59505;DHT22;45321;53.200;5.814;2023-10-19T00:41:28;9.80;88.80
59505;DHT22;45321;53.200;5.814;2023-10-19T00:43:57;9.80;88.60
59505;DHT22;45321;53.200;5.814;2023-10-19T00:46:28;9.80;88.70
59505;DHT22;45321;53.200;5.814;2023-10-19T00:49:10;9.70;89.10
59505;DHT22;45321;53.200;5.814;2023-10-19T00:51:47;9.70;89.00
59505;DHT22;45321;53.200;5.814;2023-10-19T00:54:24;9.80;89.20
59505;DHT22;45321;53.200;5.814;2023-10-19T00:57:00;9.80;89.10
59505;DHT22;45321;53.200;5.814;2023-10-19T00:59:31;9.70;89.20
59505;DHT22;45321;53.200;5.814;2023-10-19T01:02:01;9.70;89.20
59505;DHT22;45321;53.200;5.814;2023-10-19T01:04:47;9.70;89.20
59505;DHT22;45321;53.200;5.814;2023-10-19T01:07:19;9.70;89.30
59505;DHT22;45321;53.200;5.814;2023-10-19T01:09:49;9.70;89.40
59505;DHT22;45321;53.200;5.814;2023-10-19T01:12:19;9.70;89.20
59505;DHT22;45321;53.200;5.814;2023-10-19T01:15:10;9.70;89.30
59505;DHT22;45321;53.200;5.814;2023-10-19T01:17:56;9.70;89.20
59505;DHT22;45321;53.200;5.814;2023-10-19T01:20:29;9.70;89.40
59505;DHT22;45321;53.200;5.814;2023-10-19T01:22:58;9.70;89.40
59505;DHT22;45321;53.200;5.814;2023-10-19T01:25:55;9.70;89.60
59505;DHT22;45321;53.200;5.814;2023-10-19T01:28:22;9.70;89.50
59505;DHT22;45321;53.200;5.814;2023-10-19T01:30:51;9.70;89.60
59505;DHT22;45321;53.200;5.814;2023-10-19T01:33:21;9.70;89.60
59505;DHT22;45321;53.200;5.814;2023-10-19T01:35:48;9.70;89.60
59505;DHT22;45321;53.200;5.814;2023-10-19T01:38:32;9.70;89.60
59505;DHT22;45321;53.200;5.814;2023-10-19T01:40:59;9.70;89.60
59505;DHT22;45321;53.200;5.814;2023-10-19T01:43:26;9.70;89.70
59505;DHT22;45321;53.200;5.814;2023-10-19T01:46:00;9.70;89.80
59505;DHT22;45321;53.200;5.814;2023-10-19T01:48:39;9.70;89.80
59505;DHT22;45321;53.200;5.814;2023-10-19T01:51:07;9.70;89.80
59505;DHT22;45321;53.200;5.814;2023-10-19T01:53:37;9.70;89.90
59505;DHT22;45321;53.200;5.814;2023-10-19T01:56:06;9.70;89.80
59505;DHT22;45321;53.200;5.814;2023-10-19T01:58:36;9.70;89.90
59505;DHT22;45321;53.200;5.814;2023-10-19T02:01:03;9.70;89.80
59505;DHT22;45321;53.200;5.814;2023-10-19T02:03:34;9.70;90.00
59505;DHT22;45321;53.200;5.814;2023-10-19T02:06:01;9.70;90.10
59505;DHT22;45321;53.200;5.814;2023-10-19T02:08:50;9.70;90.20
59505;DHT22;45321;53.200;5.814;2023-10-19T02:11:23;9.70;90.30
59505;DHT22;45321;53.200;5.814;2023-10-19T02:13:51;9.70;90.40
59505;DHT22;45321;53.200;5.814;2023-10-19T02:16:19;9.70;90.60
59505;DHT22;45321;53.200;5.814;2023-10-19T02:18:51;9.70;90.60
59505;DHT22;45321;53.200;5.814;2023-10-19T02:21:18;9.70;90.80
59505;DHT22;45321;53.200;5.814;2023-10-19T02:23:56;9.70;91.00
59505;DHT22;45321;53.200;5.814;2023-10-19T02:26:23;9.70;91.10
59505;DHT22;45321;53.200;5.814;2023-10-19T02:28:53;9.60;91.30
59505;DHT22;45321;53.200;5.814;2023-10-19T02:31:19;9.60;91.30
59505;DHT22;45321;53.200;5.814;2023-10-19T02:33:48;9.60;91.50
59505;DHT22;45321;53.200;5.814;2023-10-19T02:36:34;9.60;91.60
59505;DHT22;45321;53.200;5.814;2023-10-19T02:39:01;9.60;91.60
59505;DHT22;45321;53.200;5.814;2023-10-19T02:41:37;9.60;91.60
59505;DHT22;45321;53.200;5.814;2023-10-19T02:44:23;9.60;91.60
59505;DHT22;45321;53.200;5.814;2023-10-19T02:46:52;9.60;91.80
59505;DHT22;45321;53.200;5.814;2023-10-19T02:49:23;9.60;91.80
59505;DHT22;45321;53.200;5.814;2023-10-19T02:51:52;9.60;91.90
59505;DHT22;45321;53.200;5.814;2023-10-19T02:54:23;9.60;92.00
59505;DHT22;45321;53.200;5.814;2023-10-19T02:56:54;9.60;92.10
59505;DHT22;45321;53.200;5.814;2023-10-19T02:59:23;9.60;92.20
59505;DHT22;45321;53.200;5.814;2023-10-19T03:01:57;9.60;92.50
59505;DHT22;45321;53.200;5.814;2023-10-19T03:04:27;9.60;92.50
59505;DHT22;45321;53.200;5.814;2023-10-19T03:06:56;9.60;92.60
59505;DHT22;45321;53.200;5.814;2023-10-19T03:09:22;9.60;92.50
59505;DHT22;45321;53.200;5.814;2023-10-19T03:11:50;9.70;92.60
59505;DHT22;45321;53.200;5.814;2023-10-19T03:14:21;9.70;92.60
59505;DHT22;45321;53.200;5.814;2023-10-19T03:16:51;9.70;92.70
59505;DHT22;45321;53.200;5.814;2023-10-19T03:19:16;9.70;92.70
59505;DHT22;45321;53.200;5.814;2023-10-19T03:21:42;9.70;92.60
59505;DHT22;45321;53.200;5.814;2023-10-19T03:24:09;9.70;92.70
59505;DHT22;45321;53.200;5.814;2023-10-19T03:26:39;9.70;92.70
59505;DHT22;45321;53.200;5.814;2023-10-19T03:29:15;9.60;92.70
59505;DHT22;45321;53.200;5.814;2023-10-19T03:31:43;9.70;92.80
59505;DHT22;45321;53.200;5.814;2023-10-19T03:34:13;9.70;92.90
59505;DHT22;45321;53.200;5.814;2023-10-19T03:36:39;9.70;92.80
59505;DHT22;45321;53.200;5.814;2023-10-19T03:39:05;9.70;92.90
59505;DHT22;45321;53.200;5.814;2023-10-19T03:41:38;9.70;92.90
59505;DHT22;45321;53.200;5.814;2023-10-19T03:44:10;9.70;93.00
59505;DHT22;45321;53.200;5.814;2023-10-19T03:46:45;9.70;93.00
59505;DHT22;45321;53.200;5.814;2023-10-19T03:49:25;9.70;93.10
59505;DHT22;45321;53.200;5.814;2023-10-19T03:52:01;9.80;93.10
59505;DHT22;45321;53.200;5.814;2023-10-19T03:54:37;9.70;93.10
59505;DHT22;45321;53.200;5.814;2023-10-19T03:57:11;9.70;93.20
59505;DHT22;45321;53.200;5.814;2023-10-19T03:59:48;9.70;93.10
59505;DHT22;45321;53.200;5.814;2023-10-19T04:02:24;9.70;93.10
59505;DHT22;45321;53.200;5.814;2023-10-19T04:04:49;9.70;93.20
59505;DHT22;45321;53.200;5.814;2023-10-19T04:07:16;9.70;93.20
59505;DHT22;45321;53.200;5.814;2023-10-19T04:12:35;9.70;93.20
59505;DHT22;45321;53.200;5.814;2023-10-19T04:15:06;9.80;93.30
59505;DHT22;45321;53.200;5.814;2023-10-19T04:17:45;9.80;93.30
59505;DHT22;45321;53.200;5.814;2023-10-19T04:20:12;9.80;93.30
59505;DHT22;45321;53.200;5.814;2023-10-19T04:22:48;9.80;93.30
59505;DHT22;45321;53.200;5.814;2023-10-19T04:25:17;9.70;93.30
59505;DHT22;45321;53.200;5.814;2023-10-19T04:27:45;9.80;93.40
59505;DHT22;45321;53.200;5.814;2023-10-19T04:30:12;9.80;93.40
59505;DHT22;45321;53.200;5.814;2023-10-19T04:32:45;9.80;93.40
59505;DHT22;45321;53.200;5.814;2023-10-19T04:35:15;9.80;93.50
59505;DHT22;45321;53.200;5.814;2023-10-19T04:37:50;9.80;93.50
59505;DHT22;45321;53.200;5.814;2023-10-19T04:40:17;9.80;93.40
59505;DHT22;45321;53.200;5.814;2023-10-19T04:42:43;9.80;93.50
59505;DHT22;45321;53.200;5.814;2023-10-19T04:45:09;9.90;93.40
59505;DHT22;45321;53.200;5.814;2023-10-19T04:47:37;9.90;93.40
59505;DHT22;45321;53.200;5.814;2023-10-19T04:50:04;9.90;93.40
59505;DHT22;45321;53.200;5.814;2023-10-19T04:52:30;9.90;93.50
59505;DHT22;45321;53.200;5.814;2023-10-19T04:54:56;9.90;93.50
59505;DHT22;45321;53.200;5.814;2023-10-19T04:57:22;9.90;93.60
59505;DHT22;45321;53.200;5.814;2023-10-19T04:59:48;9.90;93.70
59505;DHT22;45321;53.200;5.814;2023-10-19T05:02:13;9.90;93.80
59505;DHT22;45321;53.200;5.814;2023-10-19T05:04:39;9.90;93.80
59505;DHT22;45321;53.200;5.814;2023-10-19T05:07:06;10.00;93.80
59505;DHT22;45321;53.200;5.814;2023-10-19T05:09:37;10.00;93.80
59505;DHT22;45321;53.200;5.814;2023-10-19T05:12:08;9.90;93.80
59505;DHT22;45321;53.200;5.814;2023-10-19T05:14:38;10.00;93.80
59505;DHT22;45321;53.200;5.814;2023-10-19T05:17:08;10.00;93.80
59505;DHT22;45321;53.200;5.814;2023-10-19T05:19:38;10.00;93.80
59505;DHT22;45321;53.200;5.814;2023-10-19T05:22:09;10.00;93.90
59505;DHT22;45321;53.200;5.814;2023-10-19T05:24:35;10.00;93.90
59505;DHT22;45321;53.200;5.814;2023-10-19T05:27:01;10.00;93.90
59505;DHT22;45321;53.200;5.814;2023-10-19T05:29:27;10.00;93.90
59505;DHT22;45321;53.200;5.814;2023-10-19T05:31:54;10.00;93.90
59505;DHT22;45321;53.200;5.814;2023-10-19T05:34:20;10.00;94.00
59505;DHT22;45321;53.200;5.814;2023-10-19T05:36:46;10.00;94.00
59505;DHT22;45321;53.200;5.814;2023-10-19T05:39:15;10.00;94.00
59505;DHT22;45321;53.200;5.814;2023-10-19T05:41:41;10.00;94.10
59505;DHT22;45321;53.200;5.814;2023-10-19T05:44:07;10.10;94.10
59505;DHT22;45321;53.200;5.814;2023-10-19T05:46:32;10.10;94.10
59505;DHT22;45321;53.200;5.814;2023-10-19T05:48:58;10.10;94.10
59505;DHT22;45321;53.200;5.814;2023-10-19T05:51:25;10.00;94.10
59505;DHT22;45321;53.200;5.814;2023-10-19T05:53:50;10.10;94.10
59505;DHT22;45321;53.200;5.814;2023-10-19T05:56:17;10.20;94.10
59505;DHT22;45321;53.200;5.814;2023-10-19T05:58:43;10.10;94.10
59505;DHT22;45321;53.200;5.814;2023-10-19T06:01:10;10.10;94.00
59505;DHT22;45321;53.200;5.814;2023-10-19T06:03:35;10.20;94.00
59505;DHT22;45321;53.200;5.814;2023-10-19T06:06:01;10.20;94.00
59505;DHT22;45321;53.200;5.814;2023-10-19T06:08:27;10.30;94.00
59505;DHT22;45321;53.200;5.814;2023-10-19T06:10:54;10.20;93.90
59505;DHT22;45321;53.200;5.814;2023-10-19T06:13:20;10.20;93.80
59505;DHT22;45321;53.200;5.814;2023-10-19T06:15:48;10.20;93.90
59505;DHT22;45321;53.200;5.814;2023-10-19T06:18:14;10.20;93.90
59505;DHT22;45321;53.200;5.814;2023-10-19T06:20:46;10.20;94.00
59505;DHT22;45321;53.200;5.814;2023-10-19T06:23:12;10.20;94.00
59505;DHT22;45321;53.200;5.814;2023-10-19T06:25:38;10.20;93.90
59505;DHT22;45321;53.200;5.814;2023-10-19T06:28:05;10.20;94.00
59505;DHT22;45321;53.200;5.814;2023-10-19T06:30:31;10.20;94.00
59505;DHT22;45321;53.200;5.814;2023-10-19T06:32:58;10.20;94.00
59505;DHT22;45321;53.200;5.814;2023-10-19T06:35:28;10.30;94.00
59505;DHT22;45321;53.200;5.814;2023-10-19T06:37:55;10.30;94.00
59505;DHT22;45321;53.200;5.814;2023-10-19T06:40:21;10.30;94.00
59505;DHT22;45321;53.200;5.814;2023-10-19T06:42:48;10.30;94.10
59505;DHT22;45321;53.200;5.814;2023-10-19T06:45:15;10.20;94.00
59505;DHT22;45321;53.200;5.814;2023-10-19T06:47:49;10.30;94.00
59505;DHT22;45321;53.200;5.814;2023-10-19T06:50:20;10.30;93.90
59505;DHT22;45321;53.200;5.814;2023-10-19T06:52:47;10.30;93.90
59505;DHT22;45321;53.200;5.814;2023-10-19T06:55:13;10.30;93.90
59505;DHT22;45321;53.200;5.814;2023-10-19T06:57:43;10.30;93.90
59505;DHT22;45321;53.200;5.814;2023-10-19T07:00:13;10.30;93.90
59505;DHT22;45321;53.200;5.814;2023-10-19T07:02:46;10.30;93.80
59505;DHT22;45321;53.200;5.814;2023-10-19T07:05:13;10.30;93.80
59505;DHT22;45321;53.200;5.814;2023-10-19T07:07:40;10.30;93.80
59505;DHT22;45321;53.200;5.814;2023-10-19T07:10:10;10.30;93.80
59505;DHT22;45321;53.200;5.814;2023-10-19T07:12:39;10.30;93.80
59505;DHT22;45321;53.200;5.814;2023-10-19T07:15:06;10.40;93.80
59505;DHT22;45321;53.200;5.814;2023-10-19T07:17:37;10.40;93.80
59505;DHT22;45321;53.200;5.814;2023-10-19T07:20:07;10.30;93.70
59505;DHT22;45321;53.200;5.814;2023-10-19T07:22:35;10.30;93.70
59505;DHT22;45321;53.200;5.814;2023-10-19T07:25:05;10.30;93.70
59505;DHT22;45321;53.200;5.814;2023-10-19T07:27:32;10.40;93.70
59505;DHT22;45321;53.200;5.814;2023-10-19T07:30:00;10.40;93.80
59505;DHT22;45321;53.200;5.814;2023-10-19T07:32:25;10.40;93.80
59505;DHT22;45321;53.200;5.814;2023-10-19T07:34:51;10.40;93.90
59505;DHT22;45321;53.200;5.814;2023-10-19T07:37:17;10.30;93.80
59505;DHT22;45321;53.200;5.814;2023-10-19T07:39:47;10.40;93.80
59505;DHT22;45321;53.200;5.814;2023-10-19T07:42:14;10.40;93.70
59505;DHT22;45321;53.200;5.814;2023-10-19T07:44:40;10.40;93.80
59505;DHT22;45321;53.200;5.814;2023-10-19T07:47:06;10.40;93.80
59505;DHT22;45321;53.200;5.814;2023-10-19T07:49:36;10.40;93.80
59505;DHT22;45321;53.200;5.814;2023-10-19T07:52:05;10.40;93.80
59505;DHT22;45321;53.200;5.814;2023-10-19T07:54:33;10.40;93.70
59505;DHT22;45321;53.200;5.814;2023-10-19T07:56:59;10.40;93.70
59505;DHT22;45321;53.200;5.814;2023-10-19T07:59:29;10.50;93.80
59505;DHT22;45321;53.200;5.814;2023-10-19T08:01:54;10.50;93.80
59505;DHT22;45321;53.200;5.814;2023-10-19T08:04:20;10.50;93.80
59505;DHT22;45321;53.200;5.814;2023-10-19T08:06:46;10.50;93.80
59505;DHT22;45321;53.200;5.814;2023-10-19T08:09:13;10.50;93.80
59505;DHT22;45321;53.200;5.814;2023-10-19T08:11:38;10.60;93.80
59505;DHT22;45321;53.200;5.814;2023-10-19T08:14:04;10.50;93.80
59505;DHT22;45321;53.200;5.814;2023-10-19T08:16:30;10.50;93.80
59505;DHT22;45321;53.200;5.814;2023-10-19T08:19:00;10.60;93.90
59505;DHT22;45321;53.200;5.814;2023-10-19T08:21:26;10.60;93.80
59505;DHT22;45321;53.200;5.814;2023-10-19T08:23:54;10.60;93.90
59505;DHT22;45321;53.200;5.814;2023-10-19T08:26:21;10.60;93.90
59505;DHT22;45321;53.200;5.814;2023-10-19T08:28:47;10.60;93.90
59505;DHT22;45321;53.200;5.814;2023-10-19T08:31:12;10.70;93.90
59505;DHT22;45321;53.200;5.814;2023-10-19T08:33:42;10.70;93.90
59505;DHT22;45321;53.200;5.814;2023-10-19T08:36:17;10.70;93.90
59505;DHT22;45321;53.200;5.814;2023-10-19T08:38:46;10.70;93.80
59505;DHT22;45321;53.200;5.814;2023-10-19T08:41:13;10.70;93.80
59505;DHT22;45321;53.200;5.814;2023-10-19T08:43:39;10.70;93.80
59505;DHT22;45321;53.200;5.814;2023-10-19T08:46:06;10.70;93.80
59505;DHT22;45321;53.200;5.814;2023-10-19T08:48:35;10.70;93.90
59505;DHT22;45321;53.200;5.814;2023-10-19T08:51:10;10.80;93.90
59505;DHT22;45321;53.200;5.814;2023-10-19T08:53:38;10.80;93.90
59505;DHT22;45321;53.200;5.814;2023-10-19T08:56:08;10.80;93.90
59505;DHT22;45321;53.200;5.814;2023-10-19T08:58:51;10.80;93.90
59505;DHT22;45321;53.200;5.814;2023-10-19T09:01:21;10.80;93.90
59505;DHT22;45321;53.200;5.814;2023-10-19T09:03:50;10.80;93.90
59505;DHT22;45321;53.200;5.814;2023-10-19T09:06:16;10.80;93.70
59505;DHT22;45321;53.200;5.814;2023-10-19T09:08:41;10.80;93.80
59505;DHT22;45321;53.200;5.814;2023-10-19T09:11:11;10.80;93.90
59505;DHT22;45321;53.200;5.814;2023-10-19T09:13:50;10.80;93.90
59505;DHT22;45321;53.200;5.814;2023-10-19T09:16:19;10.90;93.90
59505;DHT22;45321;53.200;5.814;2023-10-19T09:18:49;10.90;93.80
59505;DHT22;45321;53.200;5.814;2023-10-19T09:21:17;10.90;93.80
59505;DHT22;45321;53.200;5.814;2023-10-19T09:23:55;10.90;93.80
59505;DHT22;45321;53.200;5.814;2023-10-19T09:26:22;10.90;93.80
59505;DHT22;45321;53.200;5.814;2023-10-19T09:28:49;11.00;93.80
59505;DHT22;45321;53.200;5.814;2023-10-19T09:31:16;11.00;93.70
59505;DHT22;45321;53.200;5.814;2023-10-19T09:33:46;11.00;93.70
59505;DHT22;45321;53.200;5.814;2023-10-19T09:36:13;11.00;93.70
59505;DHT22;45321;53.200;5.814;2023-10-19T09:38:43;11.00;93.70
59505;DHT22;45321;53.200;5.814;2023-10-19T09:41:12;11.00;93.80
59505;DHT22;45321;53.200;5.814;2023-10-19T09:43:45;11.10;93.80
59505;DHT22;45321;53.200;5.814;2023-10-19T09:46:12;11.10;93.80
59505;DHT22;45321;53.200;5.814;2023-10-19T09:48:48;11.10;93.80
59505;DHT22;45321;53.200;5.814;2023-10-19T09:51:14;11.20;93.80
59505;DHT22;45321;53.200;5.814;2023-10-19T09:53:44;11.20;93.80
59505;DHT22;45321;53.200;5.814;2023-10-19T09:56:15;11.20;93.80
59505;DHT22;45321;53.200;5.814;2023-10-19T09:58:52;11.20;93.80
59505;DHT22;45321;53.200;5.814;2023-10-19T10:01:18;11.30;93.80
59505;DHT22;45321;53.200;5.814;2023-10-19T10:03:54;11.30;93.80
59505;DHT22;45321;53.200;5.814;2023-10-19T10:09:21;11.30;93.80
59505;DHT22;45321;53.200;5.814;2023-10-19T10:11:51;11.30;93.70
59505;DHT22;45321;53.200;5.814;2023-10-19T10:14:25;11.30;93.70
59505;DHT22;45321;53.200;5.814;2023-10-19T10:17:01;11.30;93.80
59505;DHT22;45321;53.200;5.814;2023-10-19T10:19:27;11.30;93.80
59505;DHT22;45321;53.200;5.814;2023-10-19T10:22:12;11.40;93.80
59505;DHT22;45321;53.200;5.814;2023-10-19T10:24:43;11.50;93.80
59505;DHT22;45321;53.200;5.814;2023-10-19T10:27:09;11.50;93.90
59505;DHT22;45321;53.200;5.814;2023-10-19T10:29:36;11.40;93.80
59505;DHT22;45321;53.200;5.814;2023-10-19T10:32:02;11.50;93.90
59505;DHT22;45321;53.200;5.814;2023-10-19T10:37:04;11.60;93.90
59505;DHT22;45321;53.200;5.814;2023-10-19T10:39:31;11.60;93.90
59505;DHT22;45321;53.200;5.814;2023-10-19T10:42:03;11.60;93.80
59505;DHT22;45321;53.200;5.814;2023-10-19T10:44:39;11.70;93.80
59505;DHT22;45321;53.200;5.814;2023-10-19T10:47:10;11.60;93.80
59505;DHT22;45321;53.200;5.814;2023-10-19T10:49:56;11.70;93.80
59505;DHT22;45321;53.200;5.814;2023-10-19T10:52:30;11.70;93.80
59505;DHT22;45321;53.200;5.814;2023-10-19T10:54:59;11.70;93.80
59505;DHT22;45321;53.200;5.814;2023-10-19T10:57:32;11.80;93.80
59505;DHT22;45321;53.200;5.814;2023-10-19T11:02:29;11.80;93.80
59505;DHT22;45321;53.200;5.814;2023-10-19T11:04:55;11.80;93.80
59505;DHT22;45321;53.200;5.814;2023-10-19T11:07:21;11.80;93.90
59505;DHT22;45321;53.200;5.814;2023-10-19T11:09:47;11.90;93.80
59505;DHT22;45321;53.200;5.814;2023-10-19T11:12:13;11.90;93.90
59505;DHT22;45321;53.200;5.814;2023-10-19T11:14:57;11.90;93.90
59505;DHT22;45321;53.200;5.814;2023-10-19T11:17:25;12.00;94.00
59505;DHT22;45321;53.200;5.814;2023-10-19T11:19:56;12.10;93.90
59505;DHT22;45321;53.200;5.814;2023-10-19T11:22:23;12.10;93.80
59505;DHT22;45321;53.200;5.814;2023-10-19T11:24:51;12.10;93.70
59505;DHT22;45321;53.200;5.814;2023-10-19T11:27:27;12.10;93.70
59505;DHT22;45321;53.200;5.814;2023-10-19T11:29:57;12.00;93.70
59505;DHT22;45321;53.200;5.814;2023-10-19T11:32:24;12.10;93.70
59505;DHT22;45321;53.200;5.814;2023-10-19T11:34:54;12.10;93.60
59505;DHT22;45321;53.200;5.814;2023-10-19T11:37:20;12.10;93.60
59505;DHT22;45321;53.200;5.814;2023-10-19T11:39:46;12.20;93.60
59505;DHT22;45321;53.200;5.814;2023-10-19T11:42:12;12.20;93.60
59505;DHT22;45321;53.200;5.814;2023-10-19T11:44:38;12.20;93.60
59505;DHT22;45321;53.200;5.814;2023-10-19T11:47:05;12.20;93.60
59505;DHT22;45321;53.200;5.814;2023-10-19T11:49:30;12.30;93.50
59505;DHT22;45321;53.200;5.814;2023-10-19T11:51:56;12.20;93.40
59505;DHT22;45321;53.200;5.814;2023-10-19T11:54:22;12.30;93.30
59505;DHT22;45321;53.200;5.814;2023-10-19T11:56:48;12.30;93.30
59505;DHT22;45321;53.200;5.814;2023-10-19T11:59:14;12.30;93.30
59505;DHT22;45321;53.200;5.814;2023-10-19T12:01:41;12.30;93.00
59505;DHT22;45321;53.200;5.814;2023-10-19T12:04:08;12.30;93.00
59505;DHT22;45321;53.200;5.814;2023-10-19T12:06:35;12.30;93.00
59505;DHT22;45321;53.200;5.814;2023-10-19T12:09:03;12.30;92.90
59505;DHT22;45321;53.200;5.814;2023-10-19T12:11:40;12.30;92.70
59505;DHT22;45321;53.200;5.814;2023-10-19T12:14:06;12.20;92.80
59505;DHT22;45321;53.200;5.814;2023-10-19T12:16:37;12.30;92.70
59505;DHT22;45321;53.200;5.814;2023-10-19T12:19:05;12.30;92.80
59505;DHT22;45321;53.200;5.814;2023-10-19T12:21:30;12.30;92.80
59505;DHT22;45321;53.200;5.814;2023-10-19T12:23:59;12.30;92.70
59505;DHT22;45321;53.200;5.814;2023-10-19T12:26:26;12.30;92.80
59505;DHT22;45321;53.200;5.814;2023-10-19T12:28:52;12.30;92.80
59505;DHT22;45321;53.200;5.814;2023-10-19T12:31:18;12.30;92.50
59505;DHT22;45321;53.200;5.814;2023-10-19T12:33:44;12.30;92.60
59505;DHT22;45321;53.200;5.814;2023-10-19T12:36:10;12.30;92.60
59505;DHT22;45321;53.200;5.814;2023-10-19T12:38:54;12.30;92.50
59505;DHT22;45321;53.200;5.814;2023-10-19T12:41:21;12.30;92.50
59505;DHT22;45321;53.200;5.814;2023-10-19T12:43:48;12.20;92.50
59505;DHT22;45321;53.200;5.814;2023-10-19T12:46:14;12.20;92.40
59505;DHT22;45321;53.200;5.814;2023-10-19T12:48:42;12.20;92.40
59505;DHT22;45321;53.200;5.814;2023-10-19T12:51:07;12.30;92.30
59505;DHT22;45321;53.200;5.814;2023-10-19T12:53:34;12.20;92.00
59505;DHT22;45321;53.200;5.814;2023-10-19T12:56:00;12.20;92.10
59505;DHT22;45321;53.200;5.814;2023-10-19T12:58:26;12.20;92.10
59505;DHT22;45321;53.200;5.814;2023-10-19T13:00:53;12.20;92.00
59505;DHT22;45321;53.200;5.814;2023-10-19T13:03:20;12.20;91.90
59505;DHT22;45321;53.200;5.814;2023-10-19T13:05:47;12.10;91.90
59505;DHT22;45321;53.200;5.814;2023-10-19T13:08:15;12.20;91.90
59505;DHT22;45321;53.200;5.814;2023-10-19T13:10:45;12.20;91.90
59505;DHT22;45321;53.200;5.814;2023-10-19T13:13:14;12.10;91.70
59505;DHT22;45321;53.200;5.814;2023-10-19T13:15:44;12.10;91.80
59505;DHT22;45321;53.200;5.814;2023-10-19T13:18:11;12.00;91.70
59505;DHT22;45321;53.200;5.814;2023-10-19T13:20:39;12.00;91.80
59505;DHT22;45321;53.200;5.814;2023-10-19T13:23:10;12.00;91.80
59505;DHT22;45321;53.200;5.814;2023-10-19T13:25:42;12.00;91.70
59505;DHT22;45321;53.200;5.814;2023-10-19T13:28:13;12.10;91.90
59505;DHT22;45321;53.200;5.814;2023-10-19T13:30:45;12.00;91.80
59505;DHT22;45321;53.200;5.814;2023-10-19T13:33:13;12.00;91.80
59505;DHT22;45321;53.200;5.814;2023-10-19T13:35:40;12.00;91.80
59505;DHT22;45321;53.200;5.814;2023-10-19T13:38:09;11.90;91.80
59505;DHT22;45321;53.200;5.814;2023-10-19T13:40:38;11.90;91.80
59505;DHT22;45321;53.200;5.814;2023-10-19T13:43:05;12.00;91.80
59505;DHT22;45321;53.200;5.814;2023-10-19T13:45:35;12.00;91.70
59505;DHT22;45321;53.200;5.814;2023-10-19T13:48:05;11.90;91.70
59505;DHT22;45321;53.200;5.814;2023-10-19T13:50:31;11.90;91.60
59505;DHT22;45321;53.200;5.814;2023-10-19T13:52:59;11.90;91.70
59505;DHT22;45321;53.200;5.814;2023-10-19T13:55:26;11.80;91.70
59505;DHT22;45321;53.200;5.814;2023-10-19T13:57:52;11.80;91.60
59505;DHT22;45321;53.200;5.814;2023-10-19T14:00:20;11.80;91.80
59505;DHT22;45321;53.200;5.814;2023-10-19T14:02:50;11.80;91.80
59505;DHT22;45321;53.200;5.814;2023-10-19T14:05:16;11.80;91.80
59505;DHT22;45321;53.200;5.814;2023-10-19T14:07:43;11.80;91.80
59505;DHT22;45321;53.200;5.814;2023-10-19T14:10:09;11.80;91.90
59505;DHT22;45321;53.200;5.814;2023-10-19T14:12:39;11.80;91.90
59505;DHT22;45321;53.200;5.814;2023-10-19T14:15:12;11.80;91.80
59505;DHT22;45321;53.200;5.814;2023-10-19T14:17:37;11.80;91.70
59505;DHT22;45321;53.200;5.814;2023-10-19T14:20:04;11.80;91.60
59505;DHT22;45321;53.200;5.814;2023-10-19T14:22:31;11.80;91.70
59505;DHT22;45321;53.200;5.814;2023-10-19T14:25:01;11.80;91.60
59505;DHT22;45321;53.200;5.814;2023-10-19T14:27:27;11.70;91.40
59505;DHT22;45321;53.200;5.814;2023-10-19T14:29:54;11.80;91.40
59505;DHT22;45321;53.200;5.814;2023-10-19T14:32:19;11.70;91.50
59505;DHT22;45321;53.200;5.814;2023-10-19T14:34:45;11.70;91.50
59505;DHT22;45321;53.200;5.814;2023-10-19T14:37:10;11.70;91.50
59505;DHT22;45321;53.200;5.814;2023-10-19T14:39:36;11.70;91.50
59505;DHT22;45321;53.200;5.814;2023-10-19T14:42:02;11.60;91.30
59505;DHT22;45321;53.200;5.814;2023-10-19T14:44:28;11.60;91.50
59505;DHT22;45321;53.200;5.814;2023-10-19T14:46:53;11.60;91.40
59505;DHT22;45321;53.200;5.814;2023-10-19T14:49:19;11.60;91.60
59505;DHT22;45321;53.200;5.814;2023-10-19T14:51:45;11.60;91.30
59505;DHT22;45321;53.200;5.814;2023-10-19T14:54:11;11.60;91.30
59505;DHT22;45321;53.200;5.814;2023-10-19T14:56:37;11.60;91.30
59505;DHT22;45321;53.200;5.814;2023-10-19T14:59:02;11.60;91.30
59505;DHT22;45321;53.200;5.814;2023-10-19T15:01:31;11.60;91.30
59505;DHT22;45321;53.200;5.814;2023-10-19T15:03:56;11.60;91.20
59505;DHT22;45321;53.200;5.814;2023-10-19T15:06:22;11.50;91.10
59505;DHT22;45321;53.200;5.814;2023-10-19T15:08:48;11.50;91.20
59505;DHT22;45321;53.200;5.814;2023-10-19T15:11:17;11.50;91.10
59505;DHT22;45321;53.200;5.814;2023-10-19T15:13:44;11.50;91.20
59505;DHT22;45321;53.200;5.814;2023-10-19T15:16:11;11.50;91.10
59505;DHT22;45321;53.200;5.814;2023-10-19T15:18:38;11.50;91.10
59505;DHT22;45321;53.200;5.814;2023-10-19T15:21:09;11.50;90.90
59505;DHT22;45321;53.200;5.814;2023-10-19T15:23:35;11.40;91.00
59505;DHT22;45321;53.200;5.814;2023-10-19T15:26:00;11.50;91.00
59505;DHT22;45321;53.200;5.814;2023-10-19T15:28:27;11.50;91.00
59505;DHT22;45321;53.200;5.814;2023-10-19T15:30:59;11.40;90.90
59505;DHT22;45321;53.200;5.814;2023-10-19T15:33:26;11.40;91.00
59505;DHT22;45321;53.200;5.814;2023-10-19T15:35:52;11.40;91.10
59505;DHT22;45321;53.200;5.814;2023-10-19T15:38:20;11.40;90.90
59505;DHT22;45321;53.200;5.814;2023-10-19T15:40:46;11.40;90.90
59505;DHT22;45321;53.200;5.814;2023-10-19T15:43:12;11.40;91.00
59505;DHT22;45321;53.200;5.814;2023-10-19T15:45:41;11.30;91.00
59505;DHT22;45321;53.200;5.814;2023-10-19T15:48:10;11.30;90.90
59505;DHT22;45321;53.200;5.814;2023-10-19T15:50:39;11.30;90.80
59505;DHT22;45321;53.200;5.814;2023-10-19T15:53:07;11.40;91.00
59505;DHT22;45321;53.200;5.814;2023-10-19T15:55:33;11.40;91.00
59505;DHT22;45321;53.200;5.814;2023-10-19T15:58:01;11.40;90.90